Dayton, New York
Current Conditions -  °F | °C
As of 4:21 PM on Tuesday 21 Oct 2014 (Local Time) from KDKK Reporting Station
Light Rain Light Rain  
Wind Chill: 51°   Ceiling: 1100
Heat Index: 51°   Visibility: 7mi
Dew Point: 49°   Wind: 13mph
Humidity: 92%   Direction: 360°N
Pressure: 29.91"   Gusts: 21mph
Location:  42.42°N, 78.98°W
Report Text: KDKK 212021Z AUTO 36011G18KT 7SM -RA FEW007 BKN011 OVC026 11/09 A2991 RMK AO2 RAB18 P0001 T01060094
Loading
Personal Weather Stations






























Interactive Weather Map
Tropical Storm Tracking
New forecast layout! Learn more

10-Day Weather Forecast

Advertisements
Track Severe Weather on mobile